createdAt,value
2019-06-15T00:02:01.803Z,99.90
2019-06-15T00:04:32.291Z,99.90
2019-06-15T00:07:02.639Z,99.90
2019-06-15T00:09:33.002Z,99.90
2019-06-15T00:12:03.438Z,99.90
2019-06-15T00:14:33.927Z,99.90
2019-06-15T00:17:04.387Z,99.90
2019-06-15T00:19:34.831Z,99.90
2019-06-15T00:22:05.186Z,99.90
2019-06-15T00:24:35.781Z,99.90
2019-06-15T00:27:06.219Z,99.90
2019-06-15T00:29:36.587Z,99.90
2019-06-15T00:32:06.950Z,99.90
2019-06-15T00:34:37.412Z,99.90
2019-06-15T00:37:07.826Z,99.90
2019-06-15T00:39:38.194Z,99.90
2019-06-15T00:42:08.630Z,99.90
2019-06-15T00:44:39.036Z,99.90
2019-06-15T00:47:09.514Z,99.90
2019-06-15T00:49:39.980Z,99.90
2019-06-15T00:52:10.343Z,99.90
2019-06-15T00:54:49.921Z,99.90
2019-06-15T00:57:12.822Z,99.90
2019-06-15T00:59:43.203Z,99.90
2019-06-15T01:02:13.548Z,99.90
2019-06-15T01:04:43.899Z,99.90
2019-06-15T01:07:14.278Z,99.90
2019-06-15T01:09:44.566Z,99.90
2019-06-15T01:12:15.015Z,99.90
2019-06-15T01:14:45.379Z,99.90
2019-06-15T01:17:15.759Z,99.90
2019-06-15T01:19:46.021Z,99.90
2019-06-15T01:22:16.379Z,99.90
2019-06-15T01:24:46.723Z,99.90
2019-06-15T01:27:17.207Z,99.90
2019-06-15T01:29:47.579Z,99.90
2019-06-15T01:32:17.882Z,99.90
2019-06-15T01:34:48.339Z,99.90
2019-06-15T01:37:18.707Z,99.90
2019-06-15T01:39:49.070Z,99.90
2019-06-15T01:42:19.531Z,99.90
2019-06-15T01:44:49.898Z,99.90
2019-06-15T01:47:20.277Z,99.90
2019-06-15T01:49:50.660Z,99.90
2019-06-15T01:52:21.031Z,99.90
2019-06-15T01:54:51.372Z,99.90
2019-06-15T01:57:21.745Z,99.90
2019-06-15T01:59:52.187Z,99.90
2019-06-15T02:02:22.655Z,99.90
2019-06-15T02:04:53.011Z,99.90
2019-06-15T02:07:23.466Z,99.90
2019-06-15T02:09:53.766Z,99.90
2019-06-15T02:12:24.578Z,99.90
2019-06-15T02:14:54.945Z,99.90
2019-06-15T02:17:25.408Z,99.90
2019-06-15T02:19:55.814Z,99.90
2019-06-15T02:22:26.260Z,99.90
2019-06-15T02:24:56.618Z,99.90
2019-06-15T02:27:26.967Z,99.90
2019-06-15T02:29:57.448Z,99.90
2019-06-15T02:32:27.808Z,99.90
2019-06-15T02:34:58.258Z,99.90
2019-06-15T02:37:28.606Z,99.90
2019-06-15T02:39:59.015Z,99.90
2019-06-15T02:42:29.492Z,99.90
2019-06-15T02:44:59.840Z,99.90
2019-06-15T02:47:30.301Z,99.90
2019-06-15T02:50:00.695Z,99.90
2019-06-15T02:52:31.019Z,99.90
2019-06-15T02:55:01.301Z,99.90
2019-06-15T02:57:31.644Z,99.90
2019-06-15T03:00:01.940Z,99.90
2019-06-15T03:02:32.353Z,99.90
2019-06-15T03:05:02.771Z,99.90
2019-06-15T03:07:33.115Z,99.90
2019-06-15T03:10:03.598Z,99.90
2019-06-15T03:12:33.901Z,99.90
2019-06-15T03:15:04.760Z,99.90
2019-06-15T03:17:35.095Z,99.90
2019-06-15T03:20:05.677Z,99.90
2019-06-15T03:22:36.032Z,99.90
2019-06-15T03:25:07.166Z,99.90
2019-06-15T03:27:37.630Z,99.90
2019-06-15T03:30:09.227Z,99.90
2019-06-15T03:32:39.611Z,99.90
2019-06-15T03:35:10.475Z,99.90
2019-06-15T03:37:40.822Z,99.90
2019-06-15T03:40:11.783Z,99.90
2019-06-15T03:42:42.207Z,99.90
2019-06-15T03:45:12.696Z,99.90
2019-06-15T03:47:43.046Z,99.90
2019-06-15T03:50:14.531Z,99.90
2019-06-15T03:52:44.983Z,99.90
2019-06-15T03:55:16.109Z,99.90
2019-06-15T03:57:46.447Z,99.90
2019-06-15T04:00:48.518Z,99.90
2019-06-15T04:03:18.908Z,99.90
2019-06-15T04:05:49.351Z,99.90
2019-06-15T04:08:19.799Z,99.90
2019-06-15T04:10:50.163Z,99.90
2019-06-15T04:13:20.783Z,99.90
2019-06-15T04:15:51.143Z,99.90
2019-06-15T04:18:21.584Z,99.90
2019-06-15T04:20:52.045Z,99.90
2019-06-15T04:23:22.406Z,99.90
2019-06-15T04:25:52.847Z,99.90
2019-06-15T04:28:23.202Z,99.90
2019-06-15T04:30:53.560Z,99.90
2019-06-15T04:33:24.039Z,99.90
2019-06-15T04:35:54.399Z,99.90
2019-06-15T04:38:24.746Z,99.90
2019-06-15T04:40:55.197Z,99.90
2019-06-15T04:43:25.671Z,99.90
2019-06-15T04:45:56.019Z,99.90
2019-06-15T04:48:26.400Z,99.90
2019-06-15T04:50:56.890Z,99.90
2019-06-15T04:53:27.239Z,99.90
2019-06-15T04:55:57.712Z,99.90
2019-06-15T04:58:28.095Z,99.90
2019-06-15T05:00:58.540Z,99.90
2019-06-15T05:03:28.887Z,99.90
2019-06-15T05:05:59.259Z,99.90
2019-06-15T05:08:29.715Z,99.90
2019-06-15T05:11:02.925Z,99.90
2019-06-15T05:13:32.055Z,99.90
2019-06-15T05:16:02.425Z,99.90
2019-06-15T05:18:32.871Z,99.90
2019-06-15T05:21:03.258Z,99.90
2019-06-15T05:23:33.526Z,99.90
2019-06-15T05:26:03.819Z,99.90
2019-06-15T05:28:34.284Z,99.90
2019-06-15T05:31:04.860Z,99.90
2019-06-15T05:33:35.316Z,99.90
2019-06-15T05:36:05.697Z,99.90
2019-06-15T05:38:36.062Z,99.90
2019-06-15T05:41:06.419Z,99.90
2019-06-15T05:43:36.787Z,99.90
2019-06-15T05:46:07.264Z,99.90
2019-06-15T05:48:37.627Z,99.90
2019-06-15T05:51:08.058Z,99.90
2019-06-15T05:53:38.484Z,99.90
2019-06-15T05:56:08.791Z,99.90
2019-06-15T05:58:39.271Z,99.90
2019-06-15T06:01:09.642Z,99.90
2019-06-15T06:03:40.135Z,99.90
2019-06-15T06:06:10.488Z,99.90
2019-06-15T06:08:41.855Z,99.90
2019-06-15T06:11:12.227Z,99.90
2019-06-15T06:13:42.675Z,99.90
2019-06-15T06:16:13.127Z,99.90
2019-06-15T06:18:43.488Z,99.90
2019-06-15T06:21:13.944Z,94.60
2019-06-15T06:23:44.736Z,93.50
2019-06-15T06:26:15.181Z,91.20
2019-06-15T06:28:56.742Z,85.00
2019-06-15T06:31:17.716Z,82.20
2019-06-15T06:33:48.054Z,80.70
2019-06-15T06:36:18.511Z,81.20
2019-06-15T06:38:48.857Z,83.30
2019-06-15T06:41:19.312Z,86.60
2019-06-15T06:43:49.699Z,90.20
2019-06-15T06:46:20.190Z,91.30
2019-06-15T06:48:50.580Z,93.50
2019-06-15T06:51:20.939Z,95.00
2019-06-15T06:53:51.396Z,97.20
2019-06-15T06:56:21.855Z,96.70
2019-06-15T06:58:52.219Z,97.30
2019-06-15T07:01:22.569Z,96.40
2019-06-15T07:03:52.919Z,95.90
2019-06-15T07:06:23.283Z,97.70
2019-06-15T07:08:53.743Z,97.10
2019-06-15T07:11:24.260Z,95.00
2019-06-15T07:13:54.691Z,94.90
2019-06-15T07:16:25.099Z,94.00
2019-06-15T07:18:55.459Z,92.10
2019-06-15T07:21:25.746Z,89.00
2019-06-15T07:23:56.084Z,86.20
2019-06-15T07:26:26.575Z,83.70
2019-06-15T07:28:56.919Z,79.80
2019-06-15T07:31:27.278Z,76.60
2019-06-15T07:33:57.730Z,76.50
2019-06-15T07:36:28.031Z,77.20
2019-06-15T07:38:58.419Z,75.90
2019-06-15T07:41:28.801Z,80.20
2019-06-15T07:43:59.333Z,76.30
2019-06-15T07:46:29.754Z,74.80
2019-06-15T07:49:00.671Z,70.40
2019-06-15T07:51:30.962Z,68.30
2019-06-15T07:54:01.451Z,66.80
2019-06-15T07:56:31.740Z,69.10
2019-06-15T07:59:02.175Z,70.70
2019-06-15T08:01:32.521Z,68.90
2019-06-15T08:04:05.295Z,70.50
2019-06-15T08:06:35.799Z,69.30
2019-06-15T08:09:07.511Z,69.20
2019-06-15T08:11:37.883Z,68.40
2019-06-15T08:14:08.393Z,64.70
2019-06-15T08:16:38.779Z,63.10
2019-06-15T08:19:09.143Z,61.20
2019-06-15T08:21:39.798Z,56.50
2019-06-15T08:24:10.165Z,54.90
2019-06-15T08:26:40.603Z,54.40
2019-06-15T08:29:14.260Z,54.00
2019-06-15T08:31:44.699Z,55.30
2019-06-15T08:34:15.256Z,54.70
2019-06-15T08:36:45.617Z,54.20
2019-06-15T08:39:15.987Z,55.00
2019-06-15T08:41:46.295Z,54.00
2019-06-15T08:44:16.752Z,53.70
2019-06-15T08:46:47.144Z,54.50
2019-06-15T08:49:17.630Z,54.70
2019-06-15T08:51:48.118Z,54.50
2019-06-15T08:54:19.860Z,55.60
2019-06-15T08:56:50.305Z,54.80
2019-06-15T08:59:20.674Z,56.90
2019-06-15T09:01:50.976Z,55.80
2019-06-15T09:04:21.552Z,55.90
2019-06-15T09:06:52.010Z,56.00
2019-06-15T09:09:22.707Z,56.20
2019-06-15T09:11:53.196Z,56.90
2019-06-15T09:14:24.571Z,55.00
2019-06-15T09:16:55.312Z,55.40
2019-06-15T09:19:26.146Z,55.40
2019-06-15T09:21:56.511Z,56.10
2019-06-15T09:24:26.970Z,59.50
2019-06-15T09:26:57.327Z,61.90
2019-06-15T09:29:29.131Z,63.00
2019-06-15T09:31:59.658Z,64.70
2019-06-15T09:34:41.766Z,65.10
2019-06-15T09:37:13.243Z,65.50
2019-06-15T09:39:47.258Z,65.40
2019-06-15T09:42:18.048Z,65.60
2019-06-15T09:44:48.634Z,66.50
2019-06-15T09:47:19.192Z,65.90
2019-06-15T09:49:50.335Z,68.30
2019-06-15T09:52:20.730Z,66.30
2019-06-15T09:54:52.131Z,66.50
2019-06-15T09:57:22.963Z,67.90
2019-06-15T09:59:53.515Z,68.30
2019-06-15T10:02:23.918Z,68.40
2019-06-15T10:04:54.483Z,68.60
2019-06-15T10:07:24.840Z,68.10
2019-06-15T10:09:55.762Z,67.80
2019-06-15T10:12:26.051Z,67.90
2019-06-15T10:14:56.403Z,68.10
2019-06-15T10:17:26.823Z,67.70
2019-06-15T10:19:57.167Z,65.90
2019-06-15T10:22:27.611Z,66.20
2019-06-15T10:24:57.971Z,65.20
2019-06-15T10:27:28.349Z,65.70
2019-06-15T10:29:58.805Z,64.40
2019-06-15T10:32:29.347Z,60.90
2019-06-15T10:34:59.860Z,59.40
2019-06-15T10:37:30.202Z,60.00
2019-06-15T10:40:00.627Z,59.70
2019-06-15T10:42:31.220Z,56.50
2019-06-15T10:45:01.678Z,58.10
2019-06-15T10:47:32.165Z,64.40
2019-06-15T10:50:02.515Z,59.50
2019-06-15T10:52:32.978Z,58.50
2019-06-15T10:55:03.338Z,59.70
2019-06-15T10:57:33.742Z,59.80
2019-06-15T11:00:05.052Z,58.00
2019-06-15T11:02:35.520Z,57.10
2019-06-15T11:05:06.132Z,57.70
2019-06-15T11:07:36.516Z,59.90
2019-06-15T11:10:08.471Z,62.50
2019-06-15T11:12:46.466Z,68.10
2019-06-15T11:15:12.413Z,67.80
2019-06-15T11:17:42.884Z,67.60
2019-06-15T11:20:13.657Z,67.20
2019-06-15T11:22:44.015Z,68.10
2019-06-15T11:25:14.579Z,68.60
2019-06-15T11:27:44.902Z,69.50
2019-06-15T11:30:15.561Z,68.10
2019-06-15T11:32:45.926Z,68.70
2019-06-15T11:35:16.599Z,69.10
2019-06-15T11:37:46.940Z,70.00
2019-06-15T11:40:17.518Z,72.30
2019-06-15T11:42:49.820Z,74.40
2019-06-15T11:45:20.322Z,78.60
2019-06-15T11:47:50.875Z,78.20
2019-06-15T11:50:21.440Z,74.00
2019-06-15T11:52:51.814Z,73.60
2019-06-15T11:55:22.218Z,70.90
2019-06-15T11:57:53.185Z,71.10
2019-06-15T12:00:31.078Z,70.20
2019-06-15T12:02:58.711Z,70.10
2019-06-15T12:05:29.165Z,68.10
2019-06-15T12:07:59.612Z,70.50
2019-06-15T12:10:29.978Z,69.80
2019-06-15T12:13:00.448Z,70.70
2019-06-15T12:15:30.906Z,70.90
2019-06-15T12:18:01.299Z,69.10
2019-06-15T12:20:31.719Z,70.60
2019-06-15T12:23:02.028Z,71.40
2019-06-15T12:25:32.500Z,70.70
2019-06-15T12:28:02.913Z,70.50
2019-06-15T12:30:46.089Z,71.40
2019-06-15T12:33:09.624Z,71.60
2019-06-15T12:35:40.074Z,72.60
2019-06-15T12:38:10.528Z,73.60
2019-06-15T12:40:40.999Z,74.30
2019-06-15T12:43:11.361Z,75.00
2019-06-15T12:45:42.339Z,76.20
2019-06-15T12:48:12.719Z,76.50
2019-06-15T12:50:43.223Z,77.20
2019-06-15T12:53:13.609Z,75.90
2019-06-15T12:55:44.116Z,75.40
2019-06-15T12:58:14.566Z,75.80
2019-06-15T13:00:44.874Z,74.00
2019-06-15T13:03:15.251Z,72.30
2019-06-15T13:05:45.623Z,72.10
2019-06-15T13:08:16.096Z,72.20
2019-06-15T13:10:46.547Z,71.90
2019-06-15T13:13:17.010Z,73.20
2019-06-15T13:15:47.356Z,73.30
2019-06-15T13:18:17.731Z,71.10
2019-06-15T13:20:48.374Z,71.80
2019-06-15T13:23:18.719Z,73.70
2019-06-15T13:25:49.179Z,73.40
2019-06-15T13:28:19.455Z,73.10
2019-06-15T13:30:50.024Z,73.30
2019-06-15T13:33:20.366Z,74.70
2019-06-15T13:35:50.757Z,75.00
2019-06-15T13:38:21.253Z,75.40
2019-06-15T13:40:52.052Z,76.10
2019-06-15T13:43:22.421Z,74.80
2019-06-15T13:45:52.876Z,75.30
2019-06-15T13:48:23.234Z,76.40
2019-06-15T13:50:53.640Z,75.00
2019-06-15T13:53:24.039Z,74.90
2019-06-15T13:55:54.496Z,75.00
2019-06-15T13:58:24.846Z,75.20
2019-06-15T14:00:55.235Z,75.60
2019-06-15T14:03:25.838Z,75.90
2019-06-15T14:05:56.295Z,76.60
2019-06-15T14:08:26.839Z,75.80
2019-06-15T14:10:57.238Z,74.40
2019-06-15T14:13:27.630Z,74.70
2019-06-15T14:15:58.123Z,74.60
2019-06-15T14:18:28.572Z,75.00
2019-06-15T14:20:58.916Z,74.60
2019-06-15T14:23:29.378Z,74.70
2019-06-15T14:25:59.726Z,74.40
2019-06-15T14:28:30.087Z,75.30
2019-06-15T14:31:00.467Z,75.20
2019-06-15T14:33:30.855Z,74.80
2019-06-15T14:36:01.312Z,74.70
2019-06-15T14:38:31.682Z,74.10
2019-06-15T14:41:02.033Z,73.90
2019-06-15T14:43:32.467Z,75.50
2019-06-15T14:46:02.876Z,79.00
2019-06-15T14:48:33.333Z,77.90
2019-06-15T14:51:03.763Z,75.70
2019-06-15T14:53:36.679Z,73.60
2019-06-15T14:56:06.807Z,74.40
2019-06-15T14:58:37.401Z,75.40
2019-06-15T15:01:07.684Z,76.40
2019-06-15T15:03:38.082Z,76.60
2019-06-15T15:06:08.433Z,75.40
2019-06-15T15:08:38.895Z,76.60
2019-06-15T15:11:09.244Z,76.50
2019-06-15T15:13:39.661Z,76.60
2019-06-15T15:16:10.135Z,75.60
2019-06-15T15:18:40.486Z,76.50
2019-06-15T15:21:11.026Z,77.50
2019-06-15T15:23:41.315Z,77.00
2019-06-15T15:26:11.811Z,76.60
2019-06-15T15:28:42.213Z,76.50
2019-06-15T15:31:12.579Z,74.90
2019-06-15T15:33:43.132Z,71.60
2019-06-15T15:36:13.781Z,71.00
2019-06-15T15:38:46.640Z,73.40
2019-06-15T15:41:17.129Z,71.80
2019-06-15T15:43:47.684Z,72.50
2019-06-15T15:46:18.094Z,70.80
2019-06-15T15:48:48.543Z,72.30
2019-06-15T15:51:18.896Z,71.20
2019-06-15T15:53:49.341Z,71.20
2019-06-15T15:56:19.731Z,73.50
2019-06-15T15:58:50.226Z,73.40
2019-06-15T16:01:20.586Z,74.60
2019-06-15T16:03:50.985Z,74.50
2019-06-15T16:06:21.435Z,75.50
2019-06-15T16:08:51.943Z,76.20
2019-06-15T16:11:22.303Z,76.10
2019-06-15T16:13:52.771Z,74.50
2019-06-15T16:16:23.155Z,74.30
2019-06-15T16:18:56.004Z,74.30
2019-06-15T16:21:26.142Z,75.70
2019-06-15T16:23:58.390Z,76.70
2019-06-15T16:26:28.550Z,76.20
2019-06-15T16:28:58.890Z,76.80
2019-06-15T16:31:29.491Z,76.60
2019-06-15T16:33:59.987Z,78.00
2019-06-15T16:36:30.487Z,77.70
2019-06-15T16:39:00.948Z,76.80
2019-06-15T16:41:31.401Z,78.10
2019-06-15T16:44:01.987Z,78.90
2019-06-15T16:46:32.342Z,79.20
2019-06-15T16:49:02.733Z,78.40
2019-06-15T16:51:33.083Z,77.90
2019-06-15T16:54:06.130Z,77.10
2019-06-15T16:56:36.248Z,77.30
2019-06-15T16:59:06.899Z,78.00
2019-06-15T17:01:37.382Z,78.70
2019-06-15T17:04:08.059Z,79.10
2019-06-15T17:06:40.723Z,79.90
2019-06-15T17:09:10.994Z,79.90
2019-06-15T17:11:41.507Z,79.40
2019-06-15T17:14:12.081Z,79.60
2019-06-15T17:16:42.547Z,79.30
2019-06-15T17:19:12.839Z,79.30
2019-06-15T17:21:43.212Z,79.30
2019-06-15T17:24:13.672Z,79.30
2019-06-15T17:26:46.679Z,79.70
2019-06-15T17:29:16.349Z,80.60
2019-06-15T17:31:46.976Z,81.40
2019-06-15T17:34:17.643Z,80.10
2019-06-15T17:36:48.023Z,79.90
2019-06-15T17:39:18.424Z,79.00
2019-06-15T17:41:48.863Z,79.00
2019-06-15T17:44:19.286Z,79.20
2019-06-15T17:46:49.645Z,80.30
2019-06-15T17:49:20.143Z,80.90
2019-06-15T17:51:50.499Z,80.50
2019-06-15T17:54:21.070Z,81.40
2019-06-15T17:56:51.577Z,82.00
2019-06-15T17:59:22.630Z,81.90
2019-06-15T18:01:53.012Z,82.30
2019-06-15T18:04:23.487Z,82.70
2019-06-15T18:06:56.634Z,87.00
2019-06-15T18:09:26.050Z,90.20
2019-06-15T18:11:57.118Z,92.80
2019-06-15T18:14:27.599Z,95.20
2019-06-15T18:16:58.336Z,97.40
2019-06-15T18:19:29.016Z,99.00
2019-06-15T18:21:59.895Z,99.90
2019-06-15T18:24:30.248Z,99.90
2019-06-15T18:27:18.346Z,99.90
2019-06-15T18:29:48.755Z,99.90
2019-06-15T18:32:19.122Z,99.90
2019-06-15T18:34:49.555Z,99.90
2019-06-15T18:37:20.018Z,99.90
2019-06-15T18:39:50.491Z,99.90
2019-06-15T18:42:20.971Z,99.90
2019-06-15T18:44:51.348Z,99.90
2019-06-15T18:47:21.696Z,99.90
2019-06-15T18:49:52.067Z,99.90
2019-06-15T18:52:22.419Z,99.90
2019-06-15T18:54:52.799Z,99.90
2019-06-15T18:57:23.280Z,99.90
2019-06-15T18:59:56.157Z,99.90
2019-06-15T19:02:26.705Z,99.90
2019-06-15T19:04:57.311Z,99.90
2019-06-15T19:07:27.682Z,99.90
2019-06-15T19:09:58.095Z,99.90
2019-06-15T19:12:28.579Z,99.90
2019-06-15T19:14:58.946Z,99.90
2019-06-15T19:17:29.419Z,99.90
2019-06-15T19:19:59.771Z,99.90
2019-06-15T19:22:30.167Z,99.90
2019-06-15T19:25:00.570Z,99.90
2019-06-15T19:27:30.928Z,99.90
2019-06-15T19:30:01.446Z,99.90
2019-06-15T19:32:32.014Z,99.90
2019-06-15T19:35:02.490Z,99.90
2019-06-15T19:37:34.005Z,99.90
2019-06-15T19:40:07.300Z,99.90
2019-06-15T19:42:37.391Z,99.90
2019-06-15T19:45:10.529Z,99.90
2019-06-15T19:47:40.046Z,99.90
2019-06-15T19:50:11.189Z,99.90
2019-06-15T19:52:41.551Z,99.90
2019-06-15T19:55:11.901Z,99.90
2019-06-15T19:57:42.387Z,99.90
2019-06-15T20:00:13.032Z,99.90
2019-06-15T20:02:43.402Z,99.90
2019-06-15T20:05:13.955Z,99.90
2019-06-15T20:07:46.531Z,99.90
2019-06-15T20:10:16.407Z,99.90
2019-06-15T20:12:46.814Z,99.90
2019-06-15T20:15:17.193Z,99.90
2019-06-15T20:17:47.649Z,99.90
2019-06-15T20:20:18.034Z,99.90
2019-06-15T20:22:48.499Z,99.90
2019-06-15T20:25:18.787Z,99.90
2019-06-15T20:27:49.729Z,99.90
2019-06-15T20:30:20.455Z,99.90
2019-06-15T20:32:50.932Z,99.90
2019-06-15T20:35:21.592Z,99.90
2019-06-15T20:37:51.989Z,99.90
2019-06-15T20:40:22.376Z,99.90
2019-06-15T20:42:52.824Z,99.90
2019-06-15T20:45:23.290Z,99.90
2019-06-15T20:47:55.880Z,99.90
2019-06-15T20:50:28.520Z,99.90
2019-06-15T20:52:57.762Z,99.90
2019-06-15T20:55:28.131Z,99.90
2019-06-15T20:57:58.595Z,99.90
2019-06-15T21:00:28.883Z,99.90
2019-06-15T21:02:59.154Z,99.90
2019-06-15T21:05:37.202Z,99.90
2019-06-15T21:08:01.776Z,99.90
2019-06-15T21:10:32.108Z,99.90
2019-06-15T21:13:02.592Z,99.90
2019-06-15T21:15:36.864Z,99.90
2019-06-15T21:18:07.358Z,99.90
2019-06-15T21:20:37.834Z,99.90
2019-06-15T21:23:08.195Z,99.90
2019-06-15T21:25:38.676Z,99.90
2019-06-15T21:28:09.147Z,99.90
2019-06-15T21:30:39.482Z,99.90
2019-06-15T21:33:09.866Z,99.90
2019-06-15T21:35:49.125Z,99.90
2019-06-15T21:38:12.355Z,99.90
2019-06-15T21:40:42.759Z,99.90
2019-06-15T21:43:13.052Z,99.90
2019-06-15T21:45:46.094Z,99.90
2019-06-15T21:48:15.328Z,99.90
2019-06-15T21:50:47.206Z,99.90
2019-06-15T21:53:17.742Z,99.90
2019-06-15T21:55:48.211Z,99.90
2019-06-15T21:58:18.587Z,99.90
2019-06-15T22:01:10.171Z,99.90
2019-06-15T22:03:40.531Z,99.90
2019-06-15T22:06:10.988Z,99.90
2019-06-15T22:08:41.463Z,99.90
2019-06-15T22:11:11.828Z,99.90
2019-06-15T22:13:42.275Z,99.90
2019-06-15T22:16:13.963Z,99.90
2019-06-15T22:18:47.220Z,99.90
2019-06-15T22:21:16.724Z,99.90
2019-06-15T22:23:47.442Z,99.90
2019-06-15T22:26:17.899Z,99.90
2019-06-15T22:28:48.235Z,99.90
2019-06-15T22:31:18.550Z,99.90
2019-06-15T22:33:48.861Z,99.90
2019-06-15T22:36:25.163Z,99.90
2019-06-15T22:38:51.394Z,99.90
2019-06-15T22:41:21.746Z,99.90
2019-06-15T22:43:52.204Z,99.90
2019-06-15T22:46:22.643Z,99.90
2019-06-15T22:48:52.939Z,99.90
2019-06-15T22:51:23.391Z,99.90
2019-06-15T22:53:53.707Z,99.90
2019-06-15T22:56:26.208Z,99.90
2019-06-15T22:58:56.976Z,99.90
2019-06-15T23:01:27.447Z,99.90
2019-06-15T23:03:57.811Z,99.90
2019-06-15T23:06:36.918Z,99.90
2019-06-15T23:09:00.244Z,99.90
2019-06-15T23:11:30.707Z,99.90
2019-06-15T23:14:01.059Z,99.90
2019-06-15T23:16:31.477Z,99.90
2019-06-15T23:19:01.928Z,99.90
2019-06-15T23:21:32.400Z,99.90
2019-06-15T23:24:02.748Z,99.90
2019-06-15T23:26:33.151Z,99.90
2019-06-15T23:29:03.587Z,99.90
2019-06-15T23:31:36.707Z,99.90
2019-06-15T23:34:07.155Z,99.90
2019-06-15T23:36:52.841Z,99.90
2019-06-15T23:39:12.571Z,99.90
2019-06-15T23:41:42.839Z,99.90
2019-06-15T23:44:15.784Z,99.90
2019-06-15T23:46:46.962Z,99.90
2019-06-15T23:49:17.455Z,99.90
2019-06-15T23:51:47.816Z,99.90
2019-06-15T23:54:18.258Z,99.90
2019-06-15T23:56:48.544Z,99.90
2019-06-15T23:59:18.954Z,99.90
